Main page
METAR-TAF:

METAR-TAF

Airports :

Cazaux, France

Cazaux Air Base

latitude: 44-32N, longitude: 001-08W, elevation: 25 m

Current weather observation

The report was made 44 minutes ago, at 16:00 UTC
Wind 9 kt from the West/Northwest, varying between West and Northwest
Temperature 22°C
Humidity 69%
Pressure 1017 hPa
Visibility 10 km or more
Broken clouds at a height of 2700 ft
Broken clouds at a height of 3400 ft
Broken clouds at a height of 7200 ft

METAR: LFBC 221600Z AUTO 29009KT 260V320 9999 BKN027 BKN034 BKN072 22/16 Q1017 NOSIG

Time: 18:44 (16:44 UTC)

Forecast

The report was made 2 hours and 44 minutes ago, at 14:00 UTC
Forecast valid from 22 at 15 UTC to 23 at 15 UTC
Wind 10 kt from the West
Visibility 10 km or more
Broken clouds at a height of 2500 ft

TAF: LFBC 221400Z 2215/2315 28010KT 9999 BKN025

Weather observations and forecasts of more than 4000 airports (METAR and TAF reports).

The available stations are represented by yellow and red dots on the map.

Hover mouse over dot to see the name of the station.

Then click to see weather observations and forecasts.

To change the map : click on the green buttons with a black cross to zoom in, on the green button with a dash to zoom out, or on the green arrows for adjacent maps.


METAR-TAF: